createdAt,value
2023-05-05T00:01:34.303Z,20.80
2023-05-05T00:04:13.985Z,25.27
2023-05-05T00:06:49.983Z,22.65
2023-05-05T00:09:33.764Z,22.27
2023-05-05T00:12:12.698Z,27.95
2023-05-05T00:14:47.526Z,28.50
2023-05-05T00:17:22.633Z,27.35
2023-05-05T00:20:01.101Z,31.38
2023-05-05T00:22:34.876Z,32.88
2023-05-05T00:25:34.596Z,25.75
2023-05-05T00:28:07.936Z,27.70
2023-05-05T00:30:51.030Z,30.85
2023-05-05T00:33:31.135Z,25.65
2023-05-05T00:36:05.689Z,27.70
2023-05-05T00:38:49.898Z,30.92
2023-05-05T00:41:36.814Z,28.92
2023-05-05T00:44:15.006Z,30.08
2023-05-05T00:46:53.071Z,28.27
2023-05-05T00:49:28.503Z,28.23
2023-05-05T00:52:05.731Z,25.50
2023-05-05T00:54:41.317Z,25.83
2023-05-05T00:57:27.645Z,32.10
2023-05-05T01:00:08.884Z,30.27
2023-05-05T01:02:42.576Z,28.08
2023-05-05T01:05:35.167Z,28.20
2023-05-05T01:08:33.739Z,28.75
2023-05-05T01:11:20.804Z,29.65
2023-05-05T01:14:18.235Z,30.17
2023-05-05T01:17:09.314Z,30.20
2023-05-05T01:20:20.846Z,28.15
2023-05-05T01:23:12.809Z,30.58
2023-05-05T01:26:12.864Z,27.95
2023-05-05T01:29:09.708Z,27.10
2023-05-05T01:32:11.177Z,28.23
2023-05-05T01:35:01.604Z,30.98
2023-05-05T01:37:49.123Z,28.98
2023-05-05T01:40:25.266Z,28.70
2023-05-05T01:43:03.466Z,27.23
2023-05-05T01:45:50.210Z,27.93
2023-05-05T01:48:34.473Z,30.17
2023-05-05T01:51:22.661Z,29.83
2023-05-05T01:54:01.631Z,27.80
2023-05-05T01:56:44.810Z,28.45
2023-05-05T01:59:24.194Z,28.52
2023-05-05T02:02:22.340Z,27.95
2023-05-05T02:04:59.003Z,31.58
2023-05-05T02:07:51.236Z,28.42
2023-05-05T02:10:29.651Z,27.05
2023-05-05T02:13:05.712Z,28.63
2023-05-05T02:15:47.165Z,28.30
2023-05-05T02:18:25.934Z,28.20
2023-05-05T02:21:07.827Z,28.08
2023-05-05T02:23:46.625Z,27.73
2023-05-05T02:26:28.229Z,29.05
2023-05-05T02:29:09.487Z,29.67
2023-05-05T02:31:57.913Z,29.42
2023-05-05T02:34:43.222Z,30.08
2023-05-05T02:37:30.286Z,31.10
2023-05-05T02:40:12.288Z,31.35
2023-05-05T02:42:50.691Z,31.63
2023-05-05T02:45:27.389Z,31.05
2023-05-05T02:48:08.490Z,30.83
2023-05-05T02:50:47.484Z,30.08
2023-05-05T02:53:32.770Z,32.28
2023-05-05T02:56:29.826Z,32.25
2023-05-05T02:59:16.544Z,35.00
2023-05-05T03:02:09.368Z,35.80
2023-05-05T03:04:46.810Z,34.78
2023-05-05T03:07:30.145Z,33.75
2023-05-05T03:10:18.620Z,39.33
2023-05-05T03:13:00.973Z,31.40
2023-05-05T03:16:00.299Z,31.30
2023-05-05T03:18:40.579Z,31.73
2023-05-05T03:21:23.099Z,30.70
2023-05-05T03:24:03.586Z,31.25
2023-05-05T03:26:46.458Z,32.45
2023-05-05T03:29:27.740Z,32.72
2023-05-05T03:32:19.277Z,31.73
2023-05-05T03:35:02.945Z,33.05
2023-05-05T03:37:49.816Z,32.80
2023-05-05T03:40:36.306Z,33.10
2023-05-05T03:43:15.568Z,35.85
2023-05-05T03:45:49.923Z,32.80
2023-05-05T03:48:32.752Z,32.70
2023-05-05T03:51:19.233Z,33.03
2023-05-05T03:53:58.264Z,34.47
2023-05-05T03:56:34.746Z,35.13
2023-05-05T03:59:21.077Z,38.22
2023-05-05T04:02:00.386Z,36.67
2023-05-05T04:04:42.264Z,36.60
2023-05-05T04:07:16.923Z,39.88
2023-05-05T04:09:49.946Z,38.92
2023-05-05T04:12:29.031Z,40.08
2023-05-05T04:15:18.382Z,38.65
2023-05-05T04:18:03.804Z,38.83
2023-05-05T04:20:45.632Z,41.25
2023-05-05T04:23:24.966Z,39.28
2023-05-05T04:26:00.358Z,39.00
2023-05-05T04:28:37.224Z,42.28
2023-05-05T04:31:14.214Z,38.03
2023-05-05T04:33:51.878Z,42.50
2023-05-05T04:36:26.655Z,42.08
2023-05-05T04:39:04.968Z,41.83
2023-05-05T04:41:59.441Z,42.75
2023-05-05T04:44:37.145Z,41.53
2023-05-05T04:47:18.245Z,41.08
2023-05-05T04:49:54.130Z,41.45
2023-05-05T04:52:39.079Z,42.40
2023-05-05T04:55:17.643Z,42.63
2023-05-05T04:57:55.115Z,47.25
2023-05-05T05:00:32.171Z,41.15
2023-05-05T05:03:12.509Z,41.00
2023-05-05T05:05:48.536Z,41.80
2023-05-05T05:08:25.624Z,41.13
2023-05-05T05:11:05.922Z,40.88
2023-05-05T05:13:44.939Z,43.03
2023-05-05T05:16:16.306Z,42.65
2023-05-05T05:18:56.541Z,41.75
2023-05-05T05:21:33.437Z,42.22
2023-05-05T05:24:07.911Z,42.10
2023-05-05T05:26:43.316Z,41.05
2023-05-05T05:29:18.103Z,41.50
2023-05-05T05:31:53.299Z,41.67
2023-05-05T05:34:37.991Z,42.20
2023-05-05T05:37:12.443Z,41.28
2023-05-05T05:39:52.066Z,38.78
2023-05-05T05:42:31.859Z,38.90
2023-05-05T05:45:06.595Z,41.25
2023-05-05T05:47:40.079Z,41.05
2023-05-05T05:50:29.548Z,40.65
2023-05-05T05:53:13.115Z,40.95
2023-05-05T05:55:52.245Z,41.45
2023-05-05T05:58:31.780Z,38.67
2023-05-05T06:01:07.858Z,41.58
2023-05-05T06:03:49.098Z,41.38
2023-05-05T06:06:27.183Z,41.67
2023-05-05T06:09:03.860Z,37.85
2023-05-05T06:11:44.045Z,38.10
2023-05-05T06:14:20.168Z,37.67
2023-05-05T06:16:58.173Z,38.55
2023-05-05T06:19:46.578Z,36.28
2023-05-05T06:22:22.032Z,39.58
2023-05-05T06:24:57.748Z,38.03
2023-05-05T06:27:40.068Z,39.47
2023-05-05T06:30:29.565Z,39.90
2023-05-05T06:33:01.188Z,39.28
2023-05-05T06:35:40.268Z,37.95
2023-05-05T06:38:18.166Z,43.58
2023-05-05T06:40:58.887Z,36.53
2023-05-05T06:43:33.600Z,35.13
2023-05-05T06:46:15.394Z,36.10
2023-05-05T06:48:51.596Z,34.67
2023-05-05T06:51:25.716Z,35.55
2023-05-05T06:54:07.108Z,35.95
2023-05-05T06:56:48.238Z,35.83
2023-05-05T07:01:59.083Z,33.88
2023-05-05T07:04:40.551Z,38.58
2023-05-05T07:07:14.070Z,36.47
2023-05-05T07:09:57.154Z,36.28
2023-05-05T07:12:40.147Z,35.20
2023-05-05T07:15:29.296Z,32.63
2023-05-05T07:18:06.885Z,32.03
2023-05-05T07:20:44.557Z,34.63
2023-05-05T07:23:23.403Z,35.05
2023-05-05T07:26:05.186Z,31.83
2023-05-05T07:28:45.685Z,31.85
2023-05-05T07:31:30.530Z,30.40
2023-05-05T07:34:19.421Z,28.92
2023-05-05T07:36:57.970Z,29.98
2023-05-05T07:39:40.816Z,33.42
2023-05-05T07:42:23.208Z,28.48
2023-05-05T07:45:01.252Z,24.13
2023-05-05T07:47:41.908Z,22.90
2023-05-05T07:50:16.808Z,18.67
2023-05-05T07:52:54.001Z,23.33
2023-05-05T07:55:43.895Z,23.15
2023-05-05T07:58:47.609Z,21.77
2023-05-05T08:01:22.219Z,19.23
2023-05-05T08:04:13.410Z,22.10
2023-05-05T08:06:57.294Z,22.35
2023-05-05T08:09:40.727Z,14.95
2023-05-05T08:12:22.410Z,16.35
2023-05-05T08:15:01.463Z,16.08
2023-05-05T08:17:51.524Z,13.70
2023-05-05T08:20:32.959Z,13.65
2023-05-05T08:23:07.572Z,10.25
2023-05-05T08:25:50.421Z,14.88
2023-05-05T08:28:29.143Z,15.10
2023-05-05T08:31:18.819Z,14.40
2023-05-05T08:33:55.753Z,15.15
2023-05-05T08:36:29.388Z,14.63
2023-05-05T08:39:14.270Z,13.90
2023-05-05T08:41:48.143Z,13.00
2023-05-05T08:44:29.828Z,10.40
2023-05-05T08:47:14.325Z,15.55
2023-05-05T08:50:00.335Z,17.60
2023-05-05T08:52:42.171Z,19.45
2023-05-05T08:55:22.673Z,13.35
2023-05-05T08:58:04.804Z,13.90
2023-05-05T09:00:42.975Z,14.98
2023-05-05T09:03:18.879Z,13.32
2023-05-05T09:05:55.666Z,8.88
2023-05-05T09:08:46.928Z,8.65
2023-05-05T09:11:24.200Z,10.77
2023-05-05T09:16:47.388Z,7.72
2023-05-05T09:19:33.441Z,8.13
2023-05-05T09:22:09.000Z,7.32
2023-05-05T09:25:07.480Z,7.47
2023-05-05T09:27:48.054Z,5.78
2023-05-05T09:30:33.158Z,4.68
2023-05-05T09:33:14.412Z,6.57
2023-05-05T09:36:08.978Z,7.22
2023-05-05T09:38:49.121Z,6.03
2023-05-05T09:41:48.638Z,7.53
2023-05-05T09:44:42.813Z,6.85
2023-05-05T09:47:28.552Z,6.25
2023-05-05T09:50:08.096Z,8.60
2023-05-05T09:52:41.393Z,8.27
2023-05-05T09:55:31.790Z,7.60
2023-05-05T09:58:30.603Z,8.50
2023-05-05T10:01:27.110Z,7.32
2023-05-05T10:03:58.391Z,12.30
2023-05-05T10:06:47.841Z,6.68
2023-05-05T10:09:38.259Z,8.63
2023-05-05T10:12:20.452Z,7.03
2023-05-05T10:15:01.163Z,7.90
2023-05-05T10:17:53.883Z,10.02
2023-05-05T10:20:41.822Z,7.05
2023-05-05T10:23:26.463Z,8.45
2023-05-05T10:26:11.416Z,7.75
2023-05-05T10:28:49.998Z,9.80
2023-05-05T10:31:41.773Z,6.72
2023-05-05T10:34:24.737Z,7.68
2023-05-05T10:37:19.287Z,8.60
2023-05-05T10:39:59.345Z,8.35
2023-05-05T10:42:35.342Z,9.07
2023-05-05T10:45:27.148Z,8.00
2023-05-05T10:48:04.607Z,8.13
2023-05-05T10:50:53.726Z,8.45
2023-05-05T10:53:43.843Z,6.38
2023-05-05T10:56:33.710Z,7.68
2023-05-05T10:59:31.734Z,7.22
2023-05-05T11:02:05.040Z,6.80
2023-05-05T11:04:38.145Z,5.47
2023-05-05T11:07:35.588Z,9.05
2023-05-05T11:10:08.143Z,8.88
2023-05-05T11:13:10.346Z,8.07
2023-05-05T11:15:48.591Z,7.15
2023-05-05T11:18:44.771Z,6.73
2023-05-05T11:21:29.248Z,6.15
2023-05-05T11:24:34.806Z,7.63
2023-05-05T11:27:13.350Z,12.82
2023-05-05T11:30:17.110Z,6.18
2023-05-05T11:33:29.817Z,8.95
2023-05-05T11:36:06.021Z,5.68
2023-05-05T11:38:57.124Z,7.00
2023-05-05T11:42:24.448Z,9.30
2023-05-05T11:45:08.540Z,7.63
2023-05-05T11:47:50.414Z,7.75
2023-05-05T11:50:31.507Z,6.90
2023-05-05T11:53:11.946Z,8.13
2023-05-05T11:55:57.404Z,6.50
2023-05-05T11:58:33.233Z,6.85
2023-05-05T12:01:17.590Z,8.43
2023-05-05T12:03:58.789Z,7.80
2023-05-05T12:06:43.405Z,7.35
2023-05-05T12:09:19.228Z,8.32
2023-05-05T12:12:12.316Z,10.85
2023-05-05T12:14:58.929Z,6.75
2023-05-05T12:17:42.911Z,6.13
2023-05-05T12:20:19.196Z,7.63
2023-05-05T12:22:57.044Z,9.18
2023-05-05T12:25:43.304Z,6.40
2023-05-05T12:28:23.901Z,5.43
2023-05-05T12:31:09.256Z,7.38
2023-05-05T12:33:48.401Z,7.95
2023-05-05T12:36:38.609Z,8.05
2023-05-05T12:39:16.700Z,9.93
2023-05-05T12:41:59.673Z,8.05
2023-05-05T12:44:50.818Z,7.82
2023-05-05T12:47:35.474Z,6.40
2023-05-05T12:50:20.299Z,7.45
2023-05-05T12:53:17.892Z,7.10
2023-05-05T12:56:00.721Z,7.10
2023-05-05T12:59:04.593Z,8.48
2023-05-05T13:01:56.404Z,12.13
2023-05-05T13:04:38.575Z,8.03
2023-05-05T13:07:20.963Z,6.05
2023-05-05T13:09:56.401Z,7.03
2023-05-05T13:12:32.581Z,8.68
2023-05-05T13:15:11.425Z,5.18
2023-05-05T13:17:51.455Z,9.07
2023-05-05T13:20:41.248Z,7.03
2023-05-05T13:23:18.877Z,7.00
2023-05-05T13:26:02.474Z,8.63
2023-05-05T13:28:40.693Z,5.40
2023-05-05T13:31:15.153Z,6.05
2023-05-05T13:33:47.306Z,8.18
2023-05-05T13:36:35.116Z,7.53
2023-05-05T13:39:13.742Z,6.55
2023-05-05T13:41:56.306Z,5.80
2023-05-05T13:44:42.884Z,8.13
2023-05-05T13:47:23.224Z,7.78
2023-05-05T13:50:01.229Z,9.90
2023-05-05T13:52:37.811Z,6.72
2023-05-05T13:55:15.175Z,6.35
2023-05-05T13:57:52.768Z,5.60
2023-05-05T14:03:11.690Z,8.35
2023-05-05T14:05:52.418Z,8.75
2023-05-05T14:08:35.238Z,5.57
2023-05-05T14:11:07.736Z,7.10
2023-05-05T14:13:48.413Z,7.03
2023-05-05T14:16:34.852Z,5.15
2023-05-05T14:19:19.297Z,6.10
2023-05-05T14:21:57.506Z,4.22
2023-05-05T14:24:36.871Z,4.57
2023-05-05T14:27:14.365Z,4.85
2023-05-05T14:29:50.365Z,4.28
2023-05-05T14:32:28.469Z,4.43
2023-05-05T14:35:09.747Z,4.07
2023-05-05T14:37:47.642Z,4.40
2023-05-05T14:40:21.643Z,4.53
2023-05-05T14:43:01.508Z,5.07
2023-05-05T14:45:35.811Z,5.07
2023-05-05T14:48:13.668Z,4.53
2023-05-05T14:50:50.211Z,5.70
2023-05-05T14:53:29.440Z,4.90
2023-05-05T14:56:19.090Z,4.78
2023-05-05T14:58:58.023Z,7.55
2023-05-05T15:01:44.856Z,7.85
2023-05-05T15:04:35.306Z,8.90
2023-05-05T15:07:06.987Z,8.23
2023-05-05T15:09:44.289Z,4.90
2023-05-05T15:12:26.183Z,6.15
2023-05-05T15:15:00.330Z,4.90
2023-05-05T15:17:41.467Z,5.45
2023-05-05T15:20:18.487Z,10.63
2023-05-05T15:22:58.343Z,9.52
2023-05-05T15:25:33.069Z,5.50
2023-05-05T15:28:07.002Z,7.20
2023-05-05T15:30:45.902Z,4.78
2023-05-05T15:33:31.592Z,6.77
2023-05-05T15:36:07.401Z,6.65
2023-05-05T15:38:54.892Z,7.05
2023-05-05T15:41:32.657Z,6.03
2023-05-05T15:44:08.594Z,5.53
2023-05-05T15:46:42.590Z,4.35
2023-05-05T15:49:23.187Z,6.72
2023-05-05T15:52:07.879Z,5.20
2023-05-05T15:54:56.318Z,5.80
2023-05-05T15:57:36.585Z,6.47
2023-05-05T16:00:17.570Z,4.05
2023-05-05T16:02:50.905Z,5.68
2023-05-05T16:05:29.716Z,6.40
2023-05-05T16:08:16.541Z,14.65
2023-05-05T16:10:52.670Z,8.85
2023-05-05T16:13:34.893Z,4.75
2023-05-05T16:16:23.926Z,4.25
2023-05-05T16:19:12.312Z,6.68
2023-05-05T16:21:48.065Z,4.20
2023-05-05T16:24:26.570Z,4.25
2023-05-05T16:27:12.260Z,6.30
2023-05-05T16:29:46.656Z,9.00
2023-05-05T16:32:34.255Z,8.30
2023-05-05T16:35:12.423Z,8.02
2023-05-05T16:37:57.897Z,5.13
2023-05-05T16:40:34.796Z,7.65
2023-05-05T16:43:12.786Z,9.57
2023-05-05T16:45:44.883Z,8.32
2023-05-05T16:48:32.990Z,6.32
2023-05-05T16:51:09.560Z,5.95
2023-05-05T16:53:43.583Z,5.28
2023-05-05T16:56:22.799Z,7.22
2023-05-05T16:58:57.547Z,3.97
2023-05-05T17:01:35.670Z,7.22
2023-05-05T17:04:14.022Z,7.93
2023-05-05T17:06:53.232Z,7.43
2023-05-05T17:09:29.876Z,8.90
2023-05-05T17:12:12.826Z,7.53
2023-05-05T17:14:54.935Z,8.75
2023-05-05T17:17:28.825Z,9.82
2023-05-05T17:20:03.371Z,6.63
2023-05-05T17:22:43.573Z,6.15
2023-05-05T17:25:17.987Z,11.05
2023-05-05T17:28:04.699Z,4.80
2023-05-05T17:30:43.343Z,7.07
2023-05-05T17:33:32.070Z,9.50
2023-05-05T17:36:12.231Z,7.68
2023-05-05T17:38:51.466Z,11.27
2023-05-05T17:41:28.734Z,7.45
2023-05-05T17:44:05.955Z,9.15
2023-05-05T17:46:48.528Z,10.27
2023-05-05T17:49:29.174Z,9.73
2023-05-05T17:52:09.894Z,7.45
2023-05-05T17:54:49.832Z,10.55
2023-05-05T17:57:33.575Z,8.65
2023-05-05T18:00:16.226Z,9.82
2023-05-05T18:02:48.795Z,18.50
2023-05-05T18:05:21.261Z,10.70
2023-05-05T18:07:55.367Z,15.07
2023-05-05T18:10:36.089Z,7.38
2023-05-05T18:13:21.890Z,8.07
2023-05-05T18:16:07.760Z,17.92
2023-05-05T18:18:46.002Z,11.23
2023-05-05T18:21:21.875Z,14.40
2023-05-05T18:24:04.635Z,15.65
2023-05-05T18:29:17.349Z,11.95
2023-05-05T18:31:54.994Z,13.38
2023-05-05T18:34:35.629Z,11.40
2023-05-05T18:37:10.628Z,11.00
2023-05-05T18:39:51.102Z,15.48
2023-05-05T18:42:27.498Z,14.13
2023-05-05T18:45:08.396Z,11.93
2023-05-05T18:47:53.998Z,16.73
2023-05-05T18:50:32.954Z,17.20
2023-05-05T18:53:18.922Z,15.65
2023-05-05T18:56:01.371Z,13.00
2023-05-05T18:58:41.664Z,20.65
2023-05-05T19:01:24.103Z,16.38
2023-05-05T19:04:00.525Z,17.05
2023-05-05T19:06:36.806Z,14.10
2023-05-05T19:09:15.749Z,15.75
2023-05-05T19:11:56.319Z,18.25
2023-05-05T19:14:27.364Z,19.20
2023-05-05T19:17:11.020Z,16.00
2023-05-05T19:19:47.565Z,10.57
2023-05-05T19:22:33.588Z,12.43
2023-05-05T19:25:14.827Z,14.93
2023-05-05T19:28:02.405Z,10.30
2023-05-05T19:30:44.429Z,11.85
2023-05-05T19:33:19.555Z,12.90
2023-05-05T19:35:59.974Z,9.95
2023-05-05T19:38:44.991Z,15.32
2023-05-05T19:41:27.601Z,11.55
2023-05-05T19:44:07.162Z,13.63
2023-05-05T19:46:44.105Z,21.27
2023-05-05T19:49:23.260Z,9.60
2023-05-05T19:52:04.026Z,14.60
2023-05-05T19:54:46.040Z,13.73
2023-05-05T19:57:22.776Z,10.57
2023-05-05T20:00:00.942Z,7.88
2023-05-05T20:02:43.256Z,10.75
2023-05-05T20:05:26.715Z,7.70
2023-05-05T20:08:07.435Z,8.32
2023-05-05T20:10:47.274Z,11.10
2023-05-05T20:13:36.800Z,11.52
2023-05-05T20:16:27.243Z,11.50
2023-05-05T20:19:02.728Z,8.15
2023-05-05T20:21:43.832Z,11.10
2023-05-05T20:24:21.185Z,8.82
2023-05-05T20:27:14.435Z,11.43
2023-05-05T20:29:52.729Z,15.75
2023-05-05T20:32:27.451Z,16.15
2023-05-05T20:35:08.653Z,15.70
2023-05-05T20:37:40.819Z,12.68
2023-05-05T20:40:17.268Z,12.02
2023-05-05T20:42:52.973Z,9.95
2023-05-05T20:45:31.717Z,10.43
2023-05-05T20:48:08.000Z,8.90
2023-05-05T20:50:46.413Z,12.60
2023-05-05T20:53:22.972Z,15.07
2023-05-05T20:56:06.427Z,12.63
2023-05-05T20:58:45.500Z,16.30
2023-05-05T21:01:21.275Z,12.60
2023-05-05T21:04:01.842Z,11.88
2023-05-05T21:06:43.056Z,12.75
2023-05-05T21:09:23.193Z,18.90
2023-05-05T21:12:00.360Z,10.73
2023-05-05T21:14:37.006Z,19.15
2023-05-05T21:17:21.067Z,13.45
2023-05-05T21:19:55.737Z,12.25
2023-05-05T21:22:33.199Z,12.52
2023-05-05T21:25:18.722Z,9.73
2023-05-05T21:28:03.885Z,14.02
2023-05-05T21:30:39.743Z,14.00
2023-05-05T21:33:26.208Z,11.13
2023-05-05T21:36:02.726Z,12.10
2023-05-05T21:38:39.325Z,12.80
2023-05-05T21:41:15.520Z,14.10
2023-05-05T21:43:59.549Z,14.88
2023-05-05T21:46:34.191Z,13.18
2023-05-05T21:49:19.499Z,15.65
2023-05-05T21:52:00.672Z,14.45
2023-05-05T21:54:39.241Z,16.55
2023-05-05T21:57:12.781Z,15.85
2023-05-05T21:59:49.073Z,16.63
2023-05-05T22:02:26.942Z,14.50
2023-05-05T22:05:01.691Z,19.20
2023-05-05T22:07:35.304Z,20.20
2023-05-05T22:10:12.026Z,14.38
2023-05-05T22:12:52.355Z,13.77
2023-05-05T22:15:38.977Z,15.57
2023-05-05T22:18:18.850Z,14.18
2023-05-05T22:21:06.757Z,18.95
2023-05-05T22:23:48.574Z,17.83
2023-05-05T22:26:27.457Z,13.68
2023-05-05T22:29:04.778Z,15.57
2023-05-05T22:31:39.833Z,16.02
2023-05-05T22:34:18.553Z,15.93
2023-05-05T22:36:55.643Z,14.90
2023-05-05T22:39:36.895Z,15.07
2023-05-05T22:42:14.235Z,15.80
2023-05-05T22:44:49.493Z,13.15
2023-05-05T22:47:34.589Z,13.10
2023-05-05T22:50:11.503Z,16.85
2023-05-05T22:52:49.942Z,22.17
2023-05-05T22:55:25.197Z,17.52
2023-05-05T22:58:01.413Z,15.75
2023-05-05T23:00:40.990Z,14.90
2023-05-05T23:03:17.840Z,16.45
2023-05-05T23:06:02.768Z,13.68
2023-05-05T23:08:50.629Z,17.10
2023-05-05T23:11:25.364Z,13.87
2023-05-05T23:14:17.196Z,16.27
2023-05-05T23:16:54.002Z,14.43
2023-05-05T23:19:38.291Z,15.45
2023-05-05T23:22:13.937Z,15.38
2023-05-05T23:24:49.916Z,15.23
2023-05-05T23:27:26.306Z,17.25
2023-05-05T23:30:11.177Z,12.63
2023-05-05T23:33:01.391Z,14.65
2023-05-05T23:35:46.567Z,15.80
2023-05-05T23:38:20.775Z,16.05
2023-05-05T23:41:00.377Z,14.95
2023-05-05T23:43:33.273Z,19.88
2023-05-05T23:46:27.708Z,16.98
2023-05-05T23:49:10.651Z,17.10
2023-05-05T23:51:56.692Z,18.70
2023-05-05T23:54:34.188Z,20.08
2023-05-05T23:57:15.037Z,19.23
2023-05-05T23:59:49.791Z,16.90
